Terminal Aerodrome Forecast
Issued by NWS

Home | Current Version | Previous Version | Text Only | Print | Product List | Glossary On
Versions: 1 2 3 4 5 6 7 8 9 10 11 12 13 14 15 16
000
FTUS46 KSEW 010527
TAFHQM
TAF
KHQM 010527Z 0106/0206 26006KT P6SM BKN250
     FM011300 23008KT P6SM BKN011 OVC020
     FM012000 25012KT P6SM BKN025 OVC250
     FM020300 21008KT P6SM -SHRA BKN025 OVC040=

USA.gov is the U.S. government's official web portal to all federal, state and local government web resources and services.